This is the latest recevied weather packets stored in our database for station/object LZ1PDB-12. If no packets are shown the sender has not sent any weather packets the latest 10 day(s).
| Time | Temp. | Humidity | Pressure | Rain* | Wind** | Luminosity | Snow |
|---|---|---|---|---|---|---|---|
| 1777731999 | 13.89° C | 41% | 1023.3 hPa | - | - | - | - |
| 1777731099 | 13.89° C | 41% | 1023.4 hPa | - | - | - | - |
| 1777730199 | 13.33° C | 40% | 1023.5 hPa | - | - | - | - |
| 1777729299 | 13.33° C | 39% | 1023.7 hPa | - | - | - | - |
| 1777728399 | 13.89° C | 39% | 1023.6 hPa | - | - | - | - |
| 1777727498 | 13.33° C | 39% | 1023.9 hPa | - | - | - | - |
| 1777726597 | 13.33° C | 40% | 1024.1 hPa | - | - | - | - |
| 1777725697 | 13.33° C | 40% | 1024.2 hPa | - | - | - | - |
| 1777724797 | 13.33° C | 39% | 1024.3 hPa | - | - | - | - |
| 1777723896 | 12.78° C | 40% | 1024.5 hPa | - | - | - | - |
| 1777722996 | 12.22° C | 41% | 1024.6 hPa | - | - | - | - |
| 1777722096 | 12.22° C | 40% | 1024.7 hPa | - | - | - | - |
| 1777721195 | 11.67° C | 42% | 1024.8 hPa | - | - | - | - |
| 1777720295 | 11.67° C | 41% | 1024.9 hPa | - | - | - | - |
| 1777719395 | 11.67° C | 41% | 1025 hPa | - | - | - | - |
| 1777718495 | 11.11° C | 43% | 1025.2 hPa | - | - | - | - |
| 1777717594 | 11.11° C | 42% | 1025.2 hPa | - | - | - | - |
| 1777716694 | 10.56° C | 43% | 1025.4 hPa | - | - | - | - |
| 1777715794 | 11.11° C | 42% | 1025.5 hPa | - | - | - | - |
| 1777714893 | 10° C | 44% | 1025.5 hPa | - | - | - | - |
| 1777713993 | 10.56° C | 42% | 1025.5 hPa | - | - | - | - |
| 1777713093 | 9.44° C | 45% | 1025.6 hPa | - | - | - | - |
| 1777712192 | 10° C | 43% | 1025.6 hPa | - | - | - | - |
| 1777711292 | 9.44° C | 43% | 1025.7 hPa | - | - | - | - |
| 1777710392 | 8.89° C | 44% | 1026 hPa | - | - | - | - |
* Rain since midnight (hover to see other rain measurements)
** Current wind speed in m/s (hover to see current wind gust speed)